sensor_id;sensor_type;location;lat;lon;timestamp;P1;durP1;ratioP1;P2;durP2;ratioP2
47659;SDS011;33403;43.608;1.458;2022-09-01T00:01:25;10.23;;;6.13;;
47659;SDS011;33403;43.608;1.458;2022-09-01T00:03:52;9.32;;;6.20;;
47659;SDS011;33403;43.608;1.458;2022-09-01T00:06:19;10.27;;;5.97;;
47659;SDS011;33403;43.608;1.458;2022-09-01T00:08:49;7.70;;;5.60;;
47659;SDS011;33403;43.608;1.458;2022-09-01T00:11:15;8.27;;;5.72;;
47659;SDS011;33403;43.608;1.458;2022-09-01T00:13:42;9.20;;;5.82;;
47659;SDS011;33403;43.608;1.458;2022-09-01T00:16:08;9.88;;;6.15;;
47659;SDS011;33403;43.608;1.458;2022-09-01T00:18:38;12.13;;;6.32;;
47659;SDS011;33403;43.608;1.458;2022-09-01T00:21:06;7.10;;;5.43;;
47659;SDS011;33403;43.608;1.458;2022-09-01T00:23:32;10.65;;;6.10;;
47659;SDS011;33403;43.608;1.458;2022-09-01T00:25:58;8.75;;;5.82;;
47659;SDS011;33403;43.608;1.458;2022-09-01T00:28:24;10.25;;;6.18;;
47659;SDS011;33403;43.608;1.458;2022-09-01T00:30:50;8.35;;;5.70;;
47659;SDS011;33403;43.608;1.458;2022-09-01T00:33:17;6.65;;;5.63;;
47659;SDS011;33403;43.608;1.458;2022-09-01T00:35:43;9.77;;;5.60;;
47659;SDS011;33403;43.608;1.458;2022-09-01T00:38:09;9.27;;;6.00;;
47659;SDS011;33403;43.608;1.458;2022-09-01T00:40:36;12.20;;;6.35;;
47659;SDS011;33403;43.608;1.458;2022-09-01T00:46:02;8.48;;;5.80;;
47659;SDS011;33403;43.608;1.458;2022-09-01T00:48:28;8.60;;;5.38;;
47659;SDS011;33403;43.608;1.458;2022-09-01T00:50:54;9.05;;;5.80;;
47659;SDS011;33403;43.608;1.458;2022-09-01T00:53:20;12.35;;;6.38;;
47659;SDS011;33403;43.608;1.458;2022-09-01T00:55:46;11.30;;;6.43;;
47659;SDS011;33403;43.608;1.458;2022-09-01T00:58:12;7.72;;;5.70;;
47659;SDS011;33403;43.608;1.458;2022-09-01T01:00:38;10.25;;;5.90;;
47659;SDS011;33403;43.608;1.458;2022-09-01T01:03:09;9.35;;;6.20;;
47659;SDS011;33403;43.608;1.458;2022-09-01T01:05:43;9.57;;;6.15;;
47659;SDS011;33403;43.608;1.458;2022-09-01T01:08:12;12.93;;;6.65;;
47659;SDS011;33403;43.608;1.458;2022-09-01T01:10:42;11.32;;;6.03;;
47659;SDS011;33403;43.608;1.458;2022-09-01T01:13:09;9.18;;;5.97;;
47659;SDS011;33403;43.608;1.458;2022-09-01T01:15:37;10.70;;;6.32;;
47659;SDS011;33403;43.608;1.458;2022-09-01T01:18:08;9.90;;;6.13;;
47659;SDS011;33403;43.608;1.458;2022-09-01T01:20:34;10.38;;;5.97;;
47659;SDS011;33403;43.608;1.458;2022-09-01T01:23:20;9.15;;;6.22;;
47659;SDS011;33403;43.608;1.458;2022-09-01T01:25:51;10.90;;;6.60;;
47659;SDS011;33403;43.608;1.458;2022-09-01T01:28:19;10.52;;;6.82;;
47659;SDS011;33403;43.608;1.458;2022-09-01T01:30:50;8.95;;;5.78;;
47659;SDS011;33403;43.608;1.458;2022-09-01T01:33:24;11.45;;;6.05;;
47659;SDS011;33403;43.608;1.458;2022-09-01T01:35:51;11.48;;;6.40;;
47659;SDS011;33403;43.608;1.458;2022-09-01T01:38:18;11.82;;;6.45;;
47659;SDS011;33403;43.608;1.458;2022-09-01T01:40:46;9.70;;;5.63;;
47659;SDS011;33403;43.608;1.458;2022-09-01T01:43:12;10.13;;;6.50;;
47659;SDS011;33403;43.608;1.458;2022-09-01T01:45:49;11.18;;;6.35;;
47659;SDS011;33403;43.608;1.458;2022-09-01T01:48:17;13.30;;;6.75;;
47659;SDS011;33403;43.608;1.458;2022-09-01T01:50:46;11.00;;;6.85;;
47659;SDS011;33403;43.608;1.458;2022-09-01T01:53:13;10.90;;;6.30;;
47659;SDS011;33403;43.608;1.458;2022-09-01T01:55:43;10.60;;;6.85;;
47659;SDS011;33403;43.608;1.458;2022-09-01T01:58:10;9.27;;;6.95;;
47659;SDS011;33403;43.608;1.458;2022-09-01T02:00:36;8.70;;;6.82;;
47659;SDS011;33403;43.608;1.458;2022-09-01T02:03:03;9.55;;;6.50;;
47659;SDS011;33403;43.608;1.458;2022-09-01T02:05:32;11.43;;;6.43;;
47659;SDS011;33403;43.608;1.458;2022-09-01T02:08:01;10.50;;;6.43;;
47659;SDS011;33403;43.608;1.458;2022-09-01T02:10:29;12.77;;;6.75;;
47659;SDS011;33403;43.608;1.458;2022-09-01T02:12:57;16.95;;;6.82;;
47659;SDS011;33403;43.608;1.458;2022-09-01T02:15:27;9.32;;;5.95;;
47659;SDS011;33403;43.608;1.458;2022-09-01T02:17:53;11.98;;;6.35;;
47659;SDS011;33403;43.608;1.458;2022-09-01T02:20:24;13.05;;;6.72;;
47659;SDS011;33403;43.608;1.458;2022-09-01T02:22:53;13.13;;;7.20;;
47659;SDS011;33403;43.608;1.458;2022-09-01T02:25:20;10.52;;;6.53;;
47659;SDS011;33403;43.608;1.458;2022-09-01T02:27:46;9.73;;;6.43;;
47659;SDS011;33403;43.608;1.458;2022-09-01T02:30:15;9.70;;;6.70;;
47659;SDS011;33403;43.608;1.458;2022-09-01T02:32:41;12.20;;;6.93;;
47659;SDS011;33403;43.608;1.458;2022-09-01T02:35:07;11.48;;;6.63;;
47659;SDS011;33403;43.608;1.458;2022-09-01T02:37:34;10.38;;;6.65;;
47659;SDS011;33403;43.608;1.458;2022-09-01T02:40:01;13.85;;;6.80;;
47659;SDS011;33403;43.608;1.458;2022-09-01T02:42:27;11.02;;;6.80;;
47659;SDS011;33403;43.608;1.458;2022-09-01T02:44:54;12.45;;;6.93;;
47659;SDS011;33403;43.608;1.458;2022-09-01T02:47:21;13.38;;;7.43;;
47659;SDS011;33403;43.608;1.458;2022-09-01T02:49:48;9.98;;;6.57;;
47659;SDS011;33403;43.608;1.458;2022-09-01T02:52:14;10.00;;;6.20;;
47659;SDS011;33403;43.608;1.458;2022-09-01T02:54:41;11.55;;;6.72;;
47659;SDS011;33403;43.608;1.458;2022-09-01T02:57:09;9.88;;;6.80;;
47659;SDS011;33403;43.608;1.458;2022-09-01T02:59:35;10.00;;;6.68;;
47659;SDS011;33403;43.608;1.458;2022-09-01T03:02:01;11.02;;;6.80;;
47659;SDS011;33403;43.608;1.458;2022-09-01T03:04:27;10.98;;;6.13;;
47659;SDS011;33403;43.608;1.458;2022-09-01T03:06:57;10.75;;;6.25;;
47659;SDS011;33403;43.608;1.458;2022-09-01T03:09:23;10.30;;;6.28;;
47659;SDS011;33403;43.608;1.458;2022-09-01T03:11:50;10.20;;;6.32;;
47659;SDS011;33403;43.608;1.458;2022-09-01T03:14:17;9.35;;;6.47;;
47659;SDS011;33403;43.608;1.458;2022-09-01T03:16:43;11.70;;;6.10;;
47659;SDS011;33403;43.608;1.458;2022-09-01T03:19:09;12.55;;;6.47;;
47659;SDS011;33403;43.608;1.458;2022-09-01T03:21:39;11.38;;;6.43;;
47659;SDS011;33403;43.608;1.458;2022-09-01T03:24:07;11.40;;;7.30;;
47659;SDS011;33403;43.608;1.458;2022-09-01T03:26:33;10.95;;;6.43;;
47659;SDS011;33403;43.608;1.458;2022-09-01T03:29:00;8.27;;;6.00;;
47659;SDS011;33403;43.608;1.458;2022-09-01T03:31:26;11.15;;;6.68;;
47659;SDS011;33403;43.608;1.458;2022-09-01T03:33:53;10.65;;;6.45;;
47659;SDS011;33403;43.608;1.458;2022-09-01T03:36:21;8.02;;;6.20;;
47659;SDS011;33403;43.608;1.458;2022-09-01T03:38:47;8.93;;;5.90;;
47659;SDS011;33403;43.608;1.458;2022-09-01T03:41:15;7.90;;;6.40;;
47659;SDS011;33403;43.608;1.458;2022-09-01T03:43:42;10.63;;;5.75;;
47659;SDS011;33403;43.608;1.458;2022-09-01T03:46:09;8.70;;;5.97;;
47659;SDS011;33403;43.608;1.458;2022-09-01T03:48:40;11.05;;;6.85;;
47659;SDS011;33403;43.608;1.458;2022-09-01T03:51:06;9.13;;;6.80;;
47659;SDS011;33403;43.608;1.458;2022-09-01T03:53:34;11.20;;;6.55;;
47659;SDS011;33403;43.608;1.458;2022-09-01T03:56:01;11.00;;;6.60;;
47659;SDS011;33403;43.608;1.458;2022-09-01T03:58:28;12.18;;;6.28;;
47659;SDS011;33403;43.608;1.458;2022-09-01T04:00:55;13.35;;;6.80;;
47659;SDS011;33403;43.608;1.458;2022-09-01T04:03:23;11.43;;;6.50;;
47659;SDS011;33403;43.608;1.458;2022-09-01T04:05:50;10.73;;;6.45;;
47659;SDS011;33403;43.608;1.458;2022-09-01T04:08:17;9.95;;;6.35;;
47659;SDS011;33403;43.608;1.458;2022-09-01T04:10:44;10.98;;;6.28;;
47659;SDS011;33403;43.608;1.458;2022-09-01T04:13:14;10.05;;;6.15;;
47659;SDS011;33403;43.608;1.458;2022-09-01T04:15:41;13.05;;;6.45;;
47659;SDS011;33403;43.608;1.458;2022-09-01T04:18:07;12.98;;;6.32;;
47659;SDS011;33403;43.608;1.458;2022-09-01T04:20:44;9.88;;;6.53;;
47659;SDS011;33403;43.608;1.458;2022-09-01T04:23:17;9.65;;;6.78;;
47659;SDS011;33403;43.608;1.458;2022-09-01T04:25:56;11.30;;;6.22;;
47659;SDS011;33403;43.608;1.458;2022-09-01T04:28:24;9.45;;;6.20;;
47659;SDS011;33403;43.608;1.458;2022-09-01T04:30:52;7.97;;;5.93;;
47659;SDS011;33403;43.608;1.458;2022-09-01T04:33:20;9.50;;;6.18;;
47659;SDS011;33403;43.608;1.458;2022-09-01T04:35:47;8.98;;;6.28;;
47659;SDS011;33403;43.608;1.458;2022-09-01T04:38:14;12.10;;;6.95;;
47659;SDS011;33403;43.608;1.458;2022-09-01T04:40:41;10.98;;;6.13;;
47659;SDS011;33403;43.608;1.458;2022-09-01T04:43:07;9.27;;;6.60;;
47659;SDS011;33403;43.608;1.458;2022-09-01T04:45:34;10.43;;;6.55;;
47659;SDS011;33403;43.608;1.458;2022-09-01T04:48:03;9.40;;;6.32;;
47659;SDS011;33403;43.608;1.458;2022-09-01T04:50:30;10.52;;;6.75;;
47659;SDS011;33403;43.608;1.458;2022-09-01T04:53:00;10.55;;;6.10;;
47659;SDS011;33403;43.608;1.458;2022-09-01T04:55:29;7.85;;;6.30;;
47659;SDS011;33403;43.608;1.458;2022-09-01T04:57:56;11.23;;;6.30;;
47659;SDS011;33403;43.608;1.458;2022-09-01T05:00:23;12.48;;;6.05;;
47659;SDS011;33403;43.608;1.458;2022-09-01T05:02:53;10.02;;;6.57;;
47659;SDS011;33403;43.608;1.458;2022-09-01T05:05:20;9.90;;;6.72;;
47659;SDS011;33403;43.608;1.458;2022-09-01T05:07:46;9.77;;;6.93;;
47659;SDS011;33403;43.608;1.458;2022-09-01T05:10:18;11.77;;;6.65;;
47659;SDS011;33403;43.608;1.458;2022-09-01T05:12:45;9.35;;;5.85;;
47659;SDS011;33403;43.608;1.458;2022-09-01T05:15:12;12.48;;;7.30;;
47659;SDS011;33403;43.608;1.458;2022-09-01T05:17:39;10.15;;;6.03;;
47659;SDS011;33403;43.608;1.458;2022-09-01T05:20:05;11.55;;;6.32;;
47659;SDS011;33403;43.608;1.458;2022-09-01T05:22:33;10.07;;;7.07;;
47659;SDS011;33403;43.608;1.458;2022-09-01T05:25:00;11.15;;;7.13;;
47659;SDS011;33403;43.608;1.458;2022-09-01T05:27:38;8.90;;;6.35;;
47659;SDS011;33403;43.608;1.458;2022-09-01T05:30:04;9.43;;;6.05;;
47659;SDS011;33403;43.608;1.458;2022-09-01T05:32:33;16.30;;;7.00;;
47659;SDS011;33403;43.608;1.458;2022-09-01T05:35:01;8.70;;;6.60;;
47659;SDS011;33403;43.608;1.458;2022-09-01T05:37:32;11.43;;;6.85;;
47659;SDS011;33403;43.608;1.458;2022-09-01T05:39:59;12.10;;;6.90;;
47659;SDS011;33403;43.608;1.458;2022-09-01T05:42:26;10.82;;;6.60;;
47659;SDS011;33403;43.608;1.458;2022-09-01T05:44:52;10.60;;;6.88;;
47659;SDS011;33403;43.608;1.458;2022-09-01T05:47:18;11.32;;;6.53;;
47659;SDS011;33403;43.608;1.458;2022-09-01T05:49:45;10.10;;;7.15;;
47659;SDS011;33403;43.608;1.458;2022-09-01T05:52:11;11.48;;;7.20;;
47659;SDS011;33403;43.608;1.458;2022-09-01T05:54:37;10.57;;;6.88;;
47659;SDS011;33403;43.608;1.458;2022-09-01T05:57:05;11.75;;;6.80;;
47659;SDS011;33403;43.608;1.458;2022-09-01T05:59:31;10.18;;;6.82;;
47659;SDS011;33403;43.608;1.458;2022-09-01T06:01:58;10.90;;;6.95;;
47659;SDS011;33403;43.608;1.458;2022-09-01T06:04:25;10.70;;;6.60;;
47659;SDS011;33403;43.608;1.458;2022-09-01T06:06:52;10.48;;;6.47;;
47659;SDS011;33403;43.608;1.458;2022-09-01T06:09:18;12.48;;;7.20;;
47659;SDS011;33403;43.608;1.458;2022-09-01T06:11:47;9.85;;;6.25;;
47659;SDS011;33403;43.608;1.458;2022-09-01T06:14:13;11.30;;;7.10;;
47659;SDS011;33403;43.608;1.458;2022-09-01T06:16:40;11.43;;;6.75;;
47659;SDS011;33403;43.608;1.458;2022-09-01T06:19:07;10.70;;;6.93;;
47659;SDS011;33403;43.608;1.458;2022-09-01T06:21:34;11.95;;;7.10;;
47659;SDS011;33403;43.608;1.458;2022-09-01T06:24:01;11.15;;;6.43;;
47659;SDS011;33403;43.608;1.458;2022-09-01T06:26:29;11.18;;;6.78;;
47659;SDS011;33403;43.608;1.458;2022-09-01T06:28:56;10.60;;;6.75;;
47659;SDS011;33403;43.608;1.458;2022-09-01T06:31:24;10.65;;;6.50;;
47659;SDS011;33403;43.608;1.458;2022-09-01T06:33:52;14.10;;;6.60;;
47659;SDS011;33403;43.608;1.458;2022-09-01T06:36:21;9.65;;;6.60;;
47659;SDS011;33403;43.608;1.458;2022-09-01T06:38:51;11.63;;;6.18;;
47659;SDS011;33403;43.608;1.458;2022-09-01T06:41:19;11.82;;;6.60;;
47659;SDS011;33403;43.608;1.458;2022-09-01T06:43:46;9.85;;;6.50;;
47659;SDS011;33403;43.608;1.458;2022-09-01T06:46:13;11.07;;;6.80;;
47659;SDS011;33403;43.608;1.458;2022-09-01T06:48:39;13.20;;;7.60;;
47659;SDS011;33403;43.608;1.458;2022-09-01T06:51:10;9.07;;;6.22;;
47659;SDS011;33403;43.608;1.458;2022-09-01T06:53:38;10.90;;;6.63;;
47659;SDS011;33403;43.608;1.458;2022-09-01T06:56:04;11.77;;;6.70;;
47659;SDS011;33403;43.608;1.458;2022-09-01T06:58:30;12.68;;;6.93;;
47659;SDS011;33403;43.608;1.458;2022-09-01T07:00:57;8.00;;;5.72;;
47659;SDS011;33403;43.608;1.458;2022-09-01T07:03:23;9.43;;;6.38;;
47659;SDS011;33403;43.608;1.458;2022-09-01T07:05:50;11.13;;;6.07;;
47659;SDS011;33403;43.608;1.458;2022-09-01T07:08:17;13.43;;;6.68;;
47659;SDS011;33403;43.608;1.458;2022-09-01T07:10:47;14.50;;;6.47;;
47659;SDS011;33403;43.608;1.458;2022-09-01T07:13:15;12.05;;;6.72;;
47659;SDS011;33403;43.608;1.458;2022-09-01T07:15:42;9.98;;;6.13;;
47659;SDS011;33403;43.608;1.458;2022-09-01T07:18:08;14.63;;;6.75;;
47659;SDS011;33403;43.608;1.458;2022-09-01T07:20:39;12.35;;;6.32;;
47659;SDS011;33403;43.608;1.458;2022-09-01T07:23:05;9.25;;;5.10;;
47659;SDS011;33403;43.608;1.458;2022-09-01T07:25:32;9.18;;;5.47;;
47659;SDS011;33403;43.608;1.458;2022-09-01T07:27:58;11.25;;;5.65;;
47659;SDS011;33403;43.608;1.458;2022-09-01T07:30:25;9.20;;;5.10;;
47659;SDS011;33403;43.608;1.458;2022-09-01T07:32:51;7.72;;;5.03;;
47659;SDS011;33403;43.608;1.458;2022-09-01T07:35:19;6.85;;;4.82;;
47659;SDS011;33403;43.608;1.458;2022-09-01T07:37:46;7.78;;;5.28;;
47659;SDS011;33403;43.608;1.458;2022-09-01T07:40:13;11.27;;;5.95;;
47659;SDS011;33403;43.608;1.458;2022-09-01T07:42:45;7.88;;;5.45;;
47659;SDS011;33403;43.608;1.458;2022-09-01T07:45:12;10.13;;;5.43;;
47659;SDS011;33403;43.608;1.458;2022-09-01T07:47:41;11.27;;;5.72;;
47659;SDS011;33403;43.608;1.458;2022-09-01T07:50:09;9.82;;;5.88;;
47659;SDS011;33403;43.608;1.458;2022-09-01T07:52:39;10.63;;;5.50;;
47659;SDS011;33403;43.608;1.458;2022-09-01T07:55:13;9.85;;;5.63;;
47659;SDS011;33403;43.608;1.458;2022-09-01T07:57:41;8.00;;;5.25;;
47659;SDS011;33403;43.608;1.458;2022-09-01T08:00:08;10.88;;;5.47;;
47659;SDS011;33403;43.608;1.458;2022-09-01T08:02:35;7.38;;;5.20;;
47659;SDS011;33403;43.608;1.458;2022-09-01T08:05:04;10.27;;;5.38;;
47659;SDS011;33403;43.608;1.458;2022-09-01T08:07:33;10.73;;;6.00;;
47659;SDS011;33403;43.608;1.458;2022-09-01T08:10:00;9.15;;;5.30;;
47659;SDS011;33403;43.608;1.458;2022-09-01T08:12:26;9.02;;;5.80;;
47659;SDS011;33403;43.608;1.458;2022-09-01T08:14:53;9.38;;;5.78;;
47659;SDS011;33403;43.608;1.458;2022-09-01T08:17:19;10.10;;;5.88;;
47659;SDS011;33403;43.608;1.458;2022-09-01T08:19:45;7.35;;;5.35;;
47659;SDS011;33403;43.608;1.458;2022-09-01T08:22:12;8.57;;;5.30;;
47659;SDS011;33403;43.608;1.458;2022-09-01T08:24:38;9.50;;;5.55;;
47659;SDS011;33403;43.608;1.458;2022-09-01T08:27:04;8.48;;;5.50;;
47659;SDS011;33403;43.608;1.458;2022-09-01T08:29:30;8.80;;;5.57;;
47659;SDS011;33403;43.608;1.458;2022-09-01T08:31:56;8.48;;;5.72;;
47659;SDS011;33403;43.608;1.458;2022-09-01T08:34:23;10.15;;;5.40;;
47659;SDS011;33403;43.608;1.458;2022-09-01T08:36:50;9.70;;;5.57;;
47659;SDS011;33403;43.608;1.458;2022-09-01T08:39:16;9.95;;;6.05;;
47659;SDS011;33403;43.608;1.458;2022-09-01T08:44:26;9.05;;;5.72;;
47659;SDS011;33403;43.608;1.458;2022-09-01T08:46:57;6.63;;;5.13;;
47659;SDS011;33403;43.608;1.458;2022-09-01T08:49:24;8.43;;;5.25;;
47659;SDS011;33403;43.608;1.458;2022-09-01T08:52:02;9.43;;;5.70;;
47659;SDS011;33403;43.608;1.458;2022-09-01T08:54:34;10.40;;;5.45;;
47659;SDS011;33403;43.608;1.458;2022-09-01T08:57:01;8.65;;;5.43;;
47659;SDS011;33403;43.608;1.458;2022-09-01T08:59:29;7.07;;;5.60;;
47659;SDS011;33403;43.608;1.458;2022-09-01T09:02:00;8.20;;;5.35;;
47659;SDS011;33403;43.608;1.458;2022-09-01T09:07:11;8.35;;;5.40;;
47659;SDS011;33403;43.608;1.458;2022-09-01T09:09:49;10.23;;;6.43;;
47659;SDS011;33403;43.608;1.458;2022-09-01T09:17:22;9.55;;;5.85;;
47659;SDS011;33403;43.608;1.458;2022-09-01T09:19:50;10.15;;;5.40;;
47659;SDS011;33403;43.608;1.458;2022-09-01T09:22:17;8.55;;;5.75;;
47659;SDS011;33403;43.608;1.458;2022-09-01T09:24:54;7.07;;;5.03;;
47659;SDS011;33403;43.608;1.458;2022-09-01T09:27:26;9.55;;;5.30;;
47659;SDS011;33403;43.608;1.458;2022-09-01T09:29:54;10.85;;;6.20;;
47659;SDS011;33403;43.608;1.458;2022-09-01T09:32:21;8.30;;;5.75;;
47659;SDS011;33403;43.608;1.458;2022-09-01T09:34:47;8.63;;;5.30;;
47659;SDS011;33403;43.608;1.458;2022-09-01T09:39:43;9.63;;;4.95;;
47659;SDS011;33403;43.608;1.458;2022-09-01T09:42:10;8.55;;;5.40;;
47659;SDS011;33403;43.608;1.458;2022-09-01T09:44:48;8.50;;;5.47;;
47659;SDS011;33403;43.608;1.458;2022-09-01T09:52:47;8.20;;;5.13;;
47659;SDS011;33403;43.608;1.458;2022-09-01T09:57:45;10.70;;;5.35;;
47659;SDS011;33403;43.608;1.458;2022-09-01T10:02:45;7.03;;;5.25;;
47659;SDS011;33403;43.608;1.458;2022-09-01T10:08:00;7.72;;;5.68;;
47659;SDS011;33403;43.608;1.458;2022-09-01T10:10:43;9.02;;;5.47;;
47659;SDS011;33403;43.608;1.458;2022-09-01T10:13:17;8.00;;;5.57;;
47659;SDS011;33403;43.608;1.458;2022-09-01T10:15:46;6.97;;;5.88;;
47659;SDS011;33403;43.608;1.458;2022-09-01T10:18:14;9.60;;;6.57;;
47659;SDS011;33403;43.608;1.458;2022-09-01T10:20:45;11.25;;;5.95;;
47659;SDS011;33403;43.608;1.458;2022-09-01T10:23:13;8.75;;;5.75;;
47659;SDS011;33403;43.608;1.458;2022-09-01T10:25:39;9.20;;;7.45;;
47659;SDS011;33403;43.608;1.458;2022-09-01T10:28:16;13.95;;;8.43;;
47659;SDS011;33403;43.608;1.458;2022-09-01T10:30:45;13.45;;;8.40;;
47659;SDS011;33403;43.608;1.458;2022-09-01T10:33:13;11.85;;;9.05;;
47659;SDS011;33403;43.608;1.458;2022-09-01T10:35:40;9.38;;;7.60;;
47659;SDS011;33403;43.608;1.458;2022-09-01T10:38:09;10.60;;;6.40;;
47659;SDS011;33403;43.608;1.458;2022-09-01T10:40:37;9.35;;;5.72;;
47659;SDS011;33403;43.608;1.458;2022-09-01T10:45:49;9.23;;;6.00;;
47659;SDS011;33403;43.608;1.458;2022-09-01T10:51:33;11.07;;;6.13;;
47659;SDS011;33403;43.608;1.458;2022-09-01T10:53:43;8.10;;;5.53;;
47659;SDS011;33403;43.608;1.458;2022-09-01T10:56:12;9.40;;;5.90;;
47659;SDS011;33403;43.608;1.458;2022-09-01T11:04:17;8.73;;;5.80;;
47659;SDS011;33403;43.608;1.458;2022-09-01T11:06:51;10.23;;;5.75;;
47659;SDS011;33403;43.608;1.458;2022-09-01T11:09:30;7.40;;;5.90;;
47659;SDS011;33403;43.608;1.458;2022-09-01T11:14:24;7.63;;;5.65;;
47659;SDS011;33403;43.608;1.458;2022-09-01T11:17:10;11.90;;;6.20;;
47659;SDS011;33403;43.608;1.458;2022-09-01T11:19:38;7.40;;;5.40;;
47659;SDS011;33403;43.608;1.458;2022-09-01T11:22:08;8.65;;;5.88;;
47659;SDS011;33403;43.608;1.458;2022-09-01T11:27:09;6.78;;;5.53;;
47659;SDS011;33403;43.608;1.458;2022-09-01T11:32:21;10.43;;;6.45;;
47659;SDS011;33403;43.608;1.458;2022-09-01T11:34:49;7.35;;;5.47;;
47659;SDS011;33403;43.608;1.458;2022-09-01T11:37:17;9.07;;;5.75;;
47659;SDS011;33403;43.608;1.458;2022-09-01T11:39:45;9.43;;;5.53;;
47659;SDS011;33403;43.608;1.458;2022-09-01T11:42:17;8.57;;;5.82;;
47659;SDS011;33403;43.608;1.458;2022-09-01T11:47:17;9.88;;;5.60;;
47659;SDS011;33403;43.608;1.458;2022-09-01T11:49:57;8.88;;;5.55;;
47659;SDS011;33403;43.608;1.458;2022-09-01T11:52:25;8.40;;;5.55;;
47659;SDS011;33403;43.608;1.458;2022-09-01T11:54:51;9.27;;;6.18;;
47659;SDS011;33403;43.608;1.458;2022-09-01T11:59:47;8.82;;;5.80;;
47659;SDS011;33403;43.608;1.458;2022-09-01T12:02:17;8.50;;;5.25;;
47659;SDS011;33403;43.608;1.458;2022-09-01T12:04:45;9.35;;;6.20;;
47659;SDS011;33403;43.608;1.458;2022-09-01T12:07:12;8.90;;;5.82;;
47659;SDS011;33403;43.608;1.458;2022-09-01T12:09:43;8.27;;;5.75;;
47659;SDS011;33403;43.608;1.458;2022-09-01T12:15:05;8.02;;;5.35;;
47659;SDS011;33403;43.608;1.458;2022-09-01T12:17:33;8.90;;;5.85;;
47659;SDS011;33403;43.608;1.458;2022-09-01T12:20:22;10.05;;;5.70;;
47659;SDS011;33403;43.608;1.458;2022-09-01T12:22:49;10.70;;;5.60;;
47659;SDS011;33403;43.608;1.458;2022-09-01T12:25:22;9.73;;;5.72;;
47659;SDS011;33403;43.608;1.458;2022-09-01T12:27:49;11.27;;;5.68;;
47659;SDS011;33403;43.608;1.458;2022-09-01T12:30:15;8.15;;;5.30;;
47659;SDS011;33403;43.608;1.458;2022-09-01T12:32:42;7.93;;;5.32;;
47659;SDS011;33403;43.608;1.458;2022-09-01T12:35:13;8.20;;;5.30;;
47659;SDS011;33403;43.608;1.458;2022-09-01T12:37:42;7.55;;;5.25;;
47659;SDS011;33403;43.608;1.458;2022-09-01T12:40:20;8.90;;;4.97;;
47659;SDS011;33403;43.608;1.458;2022-09-01T12:42:50;6.53;;;4.90;;
47659;SDS011;33403;43.608;1.458;2022-09-01T12:45:34;6.80;;;5.25;;
47659;SDS011;33403;43.608;1.458;2022-09-01T12:48:00;8.38;;;5.55;;
47659;SDS011;33403;43.608;1.458;2022-09-01T12:52:54;10.52;;;5.90;;
47659;SDS011;33403;43.608;1.458;2022-09-01T12:55:21;6.35;;;5.22;;
47659;SDS011;33403;43.608;1.458;2022-09-01T12:57:52;7.32;;;5.10;;
47659;SDS011;33403;43.608;1.458;2022-09-01T13:07:56;7.55;;;5.00;;
47659;SDS011;33403;43.608;1.458;2022-09-01T13:10:23;7.70;;;4.80;;
47659;SDS011;33403;43.608;1.458;2022-09-01T13:12:49;9.35;;;5.55;;
47659;SDS011;33403;43.608;1.458;2022-09-01T13:15:16;7.50;;;4.97;;
47659;SDS011;33403;43.608;1.458;2022-09-01T13:17:42;5.68;;;4.95;;
47659;SDS011;33403;43.608;1.458;2022-09-01T13:20:09;7.55;;;4.90;;
47659;SDS011;33403;43.608;1.458;2022-09-01T13:22:36;9.60;;;4.90;;
47659;SDS011;33403;43.608;1.458;2022-09-01T13:25:03;7.10;;;5.18;;
47659;SDS011;33403;43.608;1.458;2022-09-01T13:27:29;9.45;;;4.95;;
47659;SDS011;33403;43.608;1.458;2022-09-01T13:29:55;6.00;;;5.03;;
47659;SDS011;33403;43.608;1.458;2022-09-01T13:32:22;8.68;;;4.63;;
47659;SDS011;33403;43.608;1.458;2022-09-01T13:34:49;6.78;;;4.72;;
47659;SDS011;33403;43.608;1.458;2022-09-01T13:37:16;7.63;;;5.10;;
47659;SDS011;33403;43.608;1.458;2022-09-01T13:39:42;7.68;;;4.85;;
47659;SDS011;33403;43.608;1.458;2022-09-01T13:42:08;6.97;;;4.38;;
47659;SDS011;33403;43.608;1.458;2022-09-01T13:44:34;5.95;;;4.70;;
47659;SDS011;33403;43.608;1.458;2022-09-01T13:47:00;7.18;;;4.47;;
47659;SDS011;33403;43.608;1.458;2022-09-01T13:49:27;5.03;;;4.32;;
47659;SDS011;33403;43.608;1.458;2022-09-01T13:51:53;7.10;;;4.70;;
47659;SDS011;33403;43.608;1.458;2022-09-01T13:54:19;7.63;;;4.60;;
47659;SDS011;33403;43.608;1.458;2022-09-01T13:56:45;5.75;;;4.97;;
47659;SDS011;33403;43.608;1.458;2022-09-01T13:59:11;5.60;;;4.70;;
47659;SDS011;33403;43.608;1.458;2022-09-01T14:01:38;6.53;;;4.88;;
47659;SDS011;33403;43.608;1.458;2022-09-01T14:04:06;6.75;;;4.93;;
47659;SDS011;33403;43.608;1.458;2022-09-01T14:06:37;7.03;;;4.82;;
47659;SDS011;33403;43.608;1.458;2022-09-01T14:09:03;6.80;;;5.00;;
47659;SDS011;33403;43.608;1.458;2022-09-01T14:11:29;7.22;;;4.95;;
47659;SDS011;33403;43.608;1.458;2022-09-01T14:13:56;6.57;;;4.95;;
47659;SDS011;33403;43.608;1.458;2022-09-01T14:16:22;5.82;;;4.50;;
47659;SDS011;33403;43.608;1.458;2022-09-01T14:18:48;7.85;;;4.90;;
47659;SDS011;33403;43.608;1.458;2022-09-01T14:21:14;7.90;;;4.70;;
47659;SDS011;33403;43.608;1.458;2022-09-01T14:23:41;8.68;;;4.78;;
47659;SDS011;33403;43.608;1.458;2022-09-01T14:26:08;5.20;;;4.32;;
47659;SDS011;33403;43.608;1.458;2022-09-01T14:28:35;7.63;;;4.38;;
47659;SDS011;33403;43.608;1.458;2022-09-01T14:31:06;8.43;;;5.07;;
47659;SDS011;33403;43.608;1.458;2022-09-01T14:33:32;6.40;;;4.60;;
47659;SDS011;33403;43.608;1.458;2022-09-01T14:35:58;7.38;;;4.55;;
47659;SDS011;33403;43.608;1.458;2022-09-01T14:38:24;6.15;;;4.57;;
47659;SDS011;33403;43.608;1.458;2022-09-01T14:40:50;6.50;;;4.75;;
47659;SDS011;33403;43.608;1.458;2022-09-01T14:43:16;5.57;;;4.50;;
47659;SDS011;33403;43.608;1.458;2022-09-01T14:45:43;5.57;;;4.57;;
47659;SDS011;33403;43.608;1.458;2022-09-01T14:48:11;6.63;;;4.78;;
47659;SDS011;33403;43.608;1.458;2022-09-01T14:50:38;7.35;;;4.95;;
47659;SDS011;33403;43.608;1.458;2022-09-01T14:53:05;8.25;;;4.20;;
47659;SDS011;33403;43.608;1.458;2022-09-01T14:55:32;7.40;;;4.47;;
47659;SDS011;33403;43.608;1.458;2022-09-01T14:57:58;6.25;;;4.82;;
47659;SDS011;33403;43.608;1.458;2022-09-01T15:00:25;7.38;;;4.82;;
47659;SDS011;33403;43.608;1.458;2022-09-01T15:02:52;5.35;;;4.15;;
47659;SDS011;33403;43.608;1.458;2022-09-01T15:05:18;5.43;;;4.13;;
47659;SDS011;33403;43.608;1.458;2022-09-01T15:07:44;8.30;;;4.90;;
47659;SDS011;33403;43.608;1.458;2022-09-01T15:10:11;6.93;;;4.22;;
47659;SDS011;33403;43.608;1.458;2022-09-01T15:12:37;6.00;;;4.40;;
47659;SDS011;33403;43.608;1.458;2022-09-01T15:15:04;7.35;;;4.43;;
47659;SDS011;33403;43.608;1.458;2022-09-01T15:17:30;8.35;;;4.70;;
47659;SDS011;33403;43.608;1.458;2022-09-01T15:19:56;6.43;;;4.68;;
47659;SDS011;33403;43.608;1.458;2022-09-01T15:22:46;7.85;;;4.55;;
47659;SDS011;33403;43.608;1.458;2022-09-01T15:25:13;6.63;;;4.75;;
47659;SDS011;33403;43.608;1.458;2022-09-01T15:27:39;9.30;;;4.85;;
47659;SDS011;33403;43.608;1.458;2022-09-01T15:30:05;9.45;;;5.00;;
47659;SDS011;33403;43.608;1.458;2022-09-01T15:32:38;5.93;;;4.85;;
47659;SDS011;33403;43.608;1.458;2022-09-01T15:35:05;6.68;;;4.72;;
47659;SDS011;33403;43.608;1.458;2022-09-01T15:37:31;7.50;;;4.68;;
47659;SDS011;33403;43.608;1.458;2022-09-01T15:39:57;7.30;;;4.72;;
47659;SDS011;33403;43.608;1.458;2022-09-01T15:42:23;5.13;;;4.53;;
47659;SDS011;33403;43.608;1.458;2022-09-01T15:44:49;6.95;;;4.60;;
47659;SDS011;33403;43.608;1.458;2022-09-01T15:47:15;7.03;;;4.70;;
47659;SDS011;33403;43.608;1.458;2022-09-01T15:49:41;7.47;;;4.35;;
47659;SDS011;33403;43.608;1.458;2022-09-01T15:52:07;8.52;;;5.05;;
47659;SDS011;33403;43.608;1.458;2022-09-01T15:54:35;6.82;;;4.90;;